Time;durP1;ratioP1;P1;durP2;ratioP2;P2;SDS_P1;SDS_P2;PMS_P1;PMS_P2;Temp;Humidity;BMP_temperature;BMP_pressure;BME280_temperature;BME280_humidity;BME280_pressure;Samples;Min_cycle;Max_cycle;Signal;HPM_P1;HPM_P2
2021/06/22 00:01:51;;;;;;;1.65;0.55;;;20.50;89.20;;;;;;5055936;28;20526;-86
2021/06/22 00:04:17;;;;;;;1.92;0.68;;;20.40;89.40;;;;;;5055223;28;20504;-85
2021/06/22 00:06:43;;;;;;;1.02;0.60;;;20.40;88.90;;;;;;5054906;28;20026;-88
2021/06/22 00:09:08;;;;;;;1.10;0.57;;;20.40;89.30;;;;;;5056140;28;20025;-89
2021/06/22 00:11:34;;;;;;;1.35;0.80;;;20.30;89.20;;;;;;5047906;28;20470;-87
2021/06/22 00:14:00;;;;;;;0.63;0.60;;;20.20;89.60;;;;;;5035628;28;20047;-88
2021/06/22 00:16:25;;;;;;;2.30;0.80;;;20.20;89.10;;;;;;5036127;28;20083;-87
2021/06/22 00:18:51;;;;;;;1.75;0.90;;;20.30;89.00;;;;;;5035701;28;20024;-86
2021/06/22 00:21:17;;;;;;;0.70;0.50;;;20.20;89.30;;;;;;5050203;28;20036;-86
2021/06/22 00:23:42;;;;;;;1.88;0.90;;;20.10;90.10;;;;;;5035756;28;20025;-88
2021/06/22 00:26:08;;;;;;;1.15;0.60;;;20.10;90.20;;;;;;5035703;28;20107;-89
2021/06/22 00:28:33;;;;;;;0.85;0.60;;;20.10;90.10;;;;;;5036446;28;20028;-83
2021/06/22 00:30:59;;;;;;;1.13;0.70;;;20.10;90.00;;;;;;5052209;28;20450;-83
2021/06/22 00:33:25;;;;;;;2.22;0.70;;;20.10;89.90;;;;;;5049057;28;20461;-84
2021/06/22 00:35:50;;;;;;;1.77;0.88;;;20.10;90.00;;;;;;5035518;28;20025;-88
2021/06/22 00:38:16;;;;;;;3.70;1.08;;;20.10;90.20;;;;;;5035397;28;20458;-88
2021/06/22 00:40:42;;;;;;;0.93;0.82;;;20.10;90.20;;;;;;5035691;28;20036;-88
2021/06/22 00:43:07;;;;;;;1.38;0.80;;;20.10;90.20;;;;;;5050509;28;20045;-87
2021/06/22 00:45:34;;;;;;;1.77;0.85;;;20.10;90.10;;;;;;5035227;28;20477;-87
2021/06/22 00:48:00;;;;;;;3.42;0.90;;;20.10;90.00;;;;;;5045575;28;20480;-88
2021/06/22 00:50:27;;;;;;;3.47;0.80;;;20.20;90.00;;;;;;5040542;28;20035;-87
2021/06/22 00:52:55;;;;;;;1.92;0.90;;;20.20;89.80;;;;;;5052354;28;20063;-88
2021/06/22 00:55:30;;;;;;;3.40;1.00;;;20.20;89.90;;;;;;5035106;28;20441;-88
2021/06/22 00:58:04;;;;;;;1.63;1.13;;;20.10;90.10;;;;;;5044826;28;20449;-88
2021/06/22 01:00:30;;;;;;;2.17;0.98;;;20.00;90.10;;;;;;5039695;28;20041;-87
2021/06/22 01:02:57;;;;;;;2.20;0.65;;;19.90;90.30;;;;;;5050905;28;20107;-88
2021/06/22 01:05:24;;;;;;;1.55;0.95;;;19.90;90.30;;;;;;5035158;28;20028;-87
2021/06/22 01:07:55;;;;;;;3.55;0.98;;;19.90;90.20;;;;;;5034800;28;20441;-87
2021/06/22 01:10:22;;;;;;;1.02;0.70;;;19.90;89.90;;;;;;5052628;28;20104;-87
2021/06/22 01:12:49;;;;;;;1.38;0.82;;;19.90;89.50;;;;;;5035720;28;20166;-87
2021/06/22 01:15:20;;;;;;;4.93;1.52;;;19.90;89.80;;;;;;5049705;28;20037;-87
2021/06/22 01:17:46;;;;;;;2.47;1.30;;;19.80;90.10;;;;;;5052709;28;20029;-87
2021/06/22 01:20:14;;;;;;;3.53;1.05;;;19.80;90.10;;;;;;5051779;28;20043;-88
2021/06/22 01:22:45;;;;;;;2.28;1.23;;;19.80;90.00;;;;;;5056393;28;20070;-87
2021/06/22 01:25:11;;;;;;;3.17;1.07;;;19.80;90.10;;;;;;5038057;28;20060;-87
2021/06/22 01:27:37;;;;;;;1.27;0.90;;;19.80;90.10;;;;;;5056384;28;20336;-87
2021/06/22 01:30:07;;;;;;;1.85;1.15;;;19.80;90.20;;;;;;5058180;28;20055;-88
2021/06/22 01:32:33;;;;;;;2.10;1.20;;;19.70;90.20;;;;;;5058476;28;20020;-86
2021/06/22 01:34:59;;;;;;;1.88;1.17;;;19.70;90.20;;;;;;5057362;28;20082;-87
2021/06/22 01:37:25;;;;;;;2.95;1.10;;;19.60;90.30;;;;;;5057491;28;20071;-88
2021/06/22 01:39:51;;;;;;;2.85;1.73;;;19.70;90.40;;;;;;5057831;28;20048;-88
2021/06/22 01:42:19;;;;;;;3.97;1.70;;;19.70;90.40;;;;;;5057510;28;20032;-88
2021/06/22 01:44:47;;;;;;;3.13;2.05;;;19.70;90.30;;;;;;5057300;28;20044;-89
2021/06/22 01:47:14;;;;;;;3.15;2.22;;;19.70;90.40;;;;;;5057607;28;20407;-88
2021/06/22 01:49:40;;;;;;;3.42;2.10;;;19.70;90.40;;;;;;5075479;28;20020;-87
2021/06/22 01:52:06;;;;;;;5.82;3.83;;;19.60;90.60;;;;;;5057202;28;20034;-87
2021/06/22 01:54:32;;;;;;;5.78;3.80;;;19.50;90.50;;;;;;5057827;28;20048;-86
2021/06/22 01:56:58;;;;;;;6.60;3.83;;;19.60;90.60;;;;;;5056976;28;20481;-89
2021/06/22 01:59:24;;;;;;;5.60;3.83;;;19.60;90.50;;;;;;5057333;28;20046;-86
2021/06/22 02:01:50;;;;;;;8.30;4.20;;;19.60;90.50;;;;;;5058139;28;20027;-87
2021/06/22 02:04:17;;;;;;;7.32;4.38;;;19.50;90.50;;;;;;5057439;28;20032;-85
2021/06/22 02:06:43;;;;;;;7.85;4.68;;;19.60;90.50;;;;;;5056891;28;20020;-88
2021/06/22 02:09:09;;;;;;;5.15;4.18;;;19.60;90.40;;;;;;5057503;28;20024;-87
2021/06/22 02:11:38;;;;;;;8.88;4.60;;;19.70;90.30;;;;;;5057865;28;20121;-88
2021/06/22 02:14:05;;;;;;;8.95;5.03;;;19.70;90.20;;;;;;5056720;28;20040;-87
2021/06/22 02:16:31;;;;;;;9.00;5.22;;;19.70;89.80;;;;;;5057855;28;20024;-87
2021/06/22 02:18:57;;;;;;;6.82;5.50;;;19.70;89.60;;;;;;5058065;28;20033;-86
2021/06/22 02:21:23;;;;;;;7.90;5.47;;;19.70;89.70;;;;;;5058007;28;20025;-87
2021/06/22 02:23:49;;;;;;;7.65;5.60;;;19.70;90.00;;;;;;5057620;28;20035;-86
2021/06/22 02:26:15;;;;;;;8.20;5.47;;;19.70;90.00;;;;;;5062183;28;20021;-87
2021/06/22 02:28:40;;;;;;;7.93;5.97;;;19.70;89.70;;;;;;5057301;28;20016;-87
2021/06/22 02:31:06;;;;;;;10.02;6.15;;;19.70;89.40;;;;;;5036777;28;20512;-87
2021/06/22 02:33:32;;;;;;;7.90;5.80;;;19.70;90.00;;;;;;5049227;28;20103;-87
2021/06/22 02:35:58;;;;;;;10.27;5.93;;;19.70;89.40;;;;;;5037836;28;20025;-87
2021/06/22 02:38:23;;;;;;;10.80;6.80;;;19.70;89.10;;;;;;5037358;28;20630;-85
2021/06/22 02:40:49;;;;;;;7.95;6.13;;;19.60;89.00;;;;;;5053391;28;20452;-85
2021/06/22 02:43:15;;;;;;;8.70;6.00;;;19.60;89.10;;;;;;5054278;28;20024;-85
2021/06/22 02:45:42;;;;;;;9.13;6.43;;;19.60;89.00;;;;;;5031684;28;20048;-85
2021/06/22 02:48:10;;;;;;;10.13;6.72;;;19.60;88.90;;;;;;5036765;28;20029;-85
2021/06/22 02:50:36;;;;;;;10.85;6.70;;;19.60;89.10;;;;;;5037287;28;20063;-85
2021/06/22 02:53:02;;;;;;;10.98;6.57;;;19.60;88.80;;;;;;5036531;28;20029;-86
2021/06/22 02:55:28;;;;;;;10.00;6.82;;;19.60;88.60;;;;;;5050687;28;20036;-85
2021/06/22 02:57:56;;;;;;;11.73;6.75;;;19.50;88.40;;;;;;5046419;28;20024;-85
2021/06/22 03:00:24;;;;;;;9.70;6.68;;;19.50;88.50;;;;;;5042274;28;20048;-85
2021/06/22 03:02:52;;;;;;;9.85;6.20;;;19.50;88.70;;;;;;5054424;28;20096;-85
2021/06/22 03:05:19;;;;;;;9.13;6.60;;;19.40;89.20;;;;;;5053527;28;20027;-84
2021/06/22 03:07:45;;;;;;;9.65;6.28;;;19.40;89.20;;;;;;5044603;28;20021;-85
2021/06/22 03:10:14;;;;;;;12.38;6.82;;;19.40;89.50;;;;;;5043705;28;20039;-84
2021/06/22 03:12:40;;;;;;;12.57;6.72;;;19.50;88.90;;;;;;5054172;28;20025;-85
2021/06/22 03:15:07;;;;;;;8.98;6.43;;;19.40;88.60;;;;;;5052592;28;20373;-85
2021/06/22 03:17:33;;;;;;;11.55;6.45;;;19.50;88.50;;;;;;5036633;28;20465;-85
2021/06/22 03:19:59;;;;;;;10.32;6.88;;;19.50;88.50;;;;;;5064380;28;20031;-85
2021/06/22 03:22:24;;;;;;;10.32;6.65;;;19.40;88.50;;;;;;5059232;28;20053;-86
2021/06/22 03:24:50;;;;;;;10.27;6.00;;;19.40;88.40;;;;;;5037078;28;20035;-85
2021/06/22 03:27:16;;;;;;;12.50;6.47;;;19.30;88.30;;;;;;5068736;28;20025;-84
2021/06/22 03:29:42;;;;;;;10.07;5.97;;;19.30;88.10;;;;;;5036311;28;20343;-84
2021/06/22 03:32:07;;;;;;;9.77;6.78;;;19.30;88.60;;;;;;5047540;28;20020;-84
2021/06/22 03:34:35;;;;;;;12.23;6.70;;;19.30;88.40;;;;;;5040563;28;20028;-84
2021/06/22 03:37:00;;;;;;;10.90;6.78;;;19.20;88.60;;;;;;5051576;28;20049;-84
2021/06/22 03:39:26;;;;;;;16.30;6.72;;;19.20;88.50;;;;;;5049544;28;20017;-83
2021/06/22 03:41:51;;;;;;;11.68;6.32;;;19.20;88.40;;;;;;5036041;28;20031;-83
2021/06/22 03:44:17;;;;;;;10.30;6.70;;;19.30;88.60;;;;;;5034620;28;20045;-83
2021/06/22 03:46:43;;;;;;;10.45;6.55;;;19.30;88.30;;;;;;5035705;28;20120;-84
2021/06/22 03:49:09;;;;;;;10.48;6.53;;;19.30;88.10;;;;;;5051266;28;20017;-85
2021/06/22 03:51:35;;;;;;;9.70;6.18;;;19.20;88.60;;;;;;5035756;28;20499;-85
2021/06/22 03:54:01;;;;;;;10.63;6.40;;;19.20;88.40;;;;;;5035861;28;20025;-86
2021/06/22 03:56:28;;;;;;;10.52;6.75;;;19.20;88.00;;;;;;5035055;28;20082;-85
2021/06/22 03:58:53;;;;;;;10.60;6.22;;;19.20;87.90;;;;;;5069262;28;20052;-84
2021/06/22 04:01:20;;;;;;;9.00;5.95;;;19.20;87.90;;;;;;5035068;28;20044;-85
2021/06/22 04:03:46;;;;;;;11.57;6.40;;;19.20;88.00;;;;;;5044663;28;20119;-85
2021/06/22 04:06:11;;;;;;;11.07;5.30;;;19.20;88.30;;;;;;5060449;28;20052;-85
2021/06/22 04:08:38;;;;;;;10.25;5.40;;;19.20;88.00;;;;;;5051569;28;20012;-87
2021/06/22 04:11:04;;;;;;;9.75;5.65;;;19.20;87.50;;;;;;5034733;28;20017;-88
2021/06/22 04:13:30;;;;;;;7.57;4.93;;;19.20;87.00;;;;;;5048597;28;20025;-87
2021/06/22 04:15:55;;;;;;;7.88;5.10;;;19.20;86.90;;;;;;5035709;28;20166;-87
2021/06/22 04:18:22;;;;;;;10.55;5.28;;;19.10;86.80;;;;;;5053289;28;20074;-87
2021/06/22 04:20:48;;;;;;;8.10;5.20;;;19.10;86.80;;;;;;5053049;28;20122;-87
2021/06/22 04:23:14;;;;;;;9.25;4.85;;;19.10;87.00;;;;;;5035306;28;20027;-88
2021/06/22 04:25:39;;;;;;;8.20;5.22;;;19.10;87.50;;;;;;5060767;28;20028;-88
2021/06/22 04:28:06;;;;;;;7.70;4.50;;;19.10;87.30;;;;;;5043258;28;20057;-88
2021/06/22 04:30:34;;;;;;;9.93;5.15;;;19.20;87.30;;;;;;5035449;28;20086;-87
2021/06/22 04:33:00;;;;;;;9.13;5.65;;;19.10;87.70;;;;;;5035332;28;20458;-87
2021/06/22 04:35:30;;;;;;;8.23;5.38;;;19.00;88.30;;;;;;5048855;28;20029;-88
2021/06/22 04:37:59;;;;;;;8.60;5.75;;;19.00;88.10;;;;;;5045574;28;20028;-88
2021/06/22 04:40:25;;;;;;;9.95;5.78;;;19.00;88.10;;;;;;5040413;28;20101;-88
2021/06/22 04:42:51;;;;;;;7.85;5.05;;;19.00;88.50;;;;;;5035412;28;20039;-88
2021/06/22 04:45:17;;;;;;;8.73;5.20;;;18.90;88.70;;;;;;5039425;28;20103;-88
2021/06/22 04:47:42;;;;;;;7.78;5.43;;;19.00;88.80;;;;;;5046489;28;20036;-87
2021/06/22 04:50:09;;;;;;;9.68;5.80;;;19.10;88.80;;;;;;5064506;28;20071;-88
2021/06/22 04:52:35;;;;;;;8.88;5.22;;;19.10;88.00;;;;;;5039976;28;20346;-87
2021/06/22 04:55:01;;;;;;;9.43;5.60;;;19.00;88.20;;;;;;5054525;28;20037;-88
2021/06/22 04:57:27;;;;;;;8.65;5.90;;;19.00;88.50;;;;;;5035992;28;20071;-87
2021/06/22 04:59:53;;;;;;;8.75;5.25;;;19.00;88.30;;;;;;5045735;28;20023;-87
2021/06/22 05:02:19;;;;;;;8.82;5.13;;;19.00;88.70;;;;;;5045161;28;20380;-88
2021/06/22 05:04:47;;;;;;;11.73;5.68;;;18.90;88.60;;;;;;5052448;28;20094;-85
2021/06/22 05:07:12;;;;;;;9.43;5.43;;;19.00;88.80;;;;;;5060071;28;20108;-86
2021/06/22 05:09:38;;;;;;;8.15;5.68;;;19.00;88.60;;;;;;5068660;28;20056;-86
2021/06/22 05:12:04;;;;;;;8.40;5.53;;;19.00;88.40;;;;;;5039005;28;20021;-87
2021/06/22 05:14:30;;;;;;;5.93;4.55;;;19.00;88.60;;;;;;5038273;28;20048;-87
2021/06/22 05:16:56;;;;;;;8.75;5.80;;;19.00;88.50;;;;;;5055527;28;20463;-86
2021/06/22 05:19:21;;;;;;;10.68;5.40;;;19.00;88.40;;;;;;5038229;28;20458;-87
2021/06/22 05:21:47;;;;;;;8.77;5.30;;;19.00;88.30;;;;;;5047288;28;20496;-87
2021/06/22 05:24:13;;;;;;;7.13;5.28;;;19.00;88.30;;;;;;5045324;28;20108;-87
2021/06/22 05:26:39;;;;;;;7.57;5.20;;;19.00;88.30;;;;;;5072368;28;20028;-87
2021/06/22 05:29:05;;;;;;;8.20;4.90;;;19.00;89.30;;;;;;5058623;28;20485;-87
2021/06/22 05:31:30;;;;;;;6.22;4.53;;;19.00;88.70;;;;;;5038072;28;20032;-87
2021/06/22 05:33:56;;;;;;;8.30;4.90;;;19.00;88.40;;;;;;5045731;28;20445;-87
2021/06/22 05:36:22;;;;;;;6.15;4.68;;;18.90;88.50;;;;;;5043661;28;20040;-86
2021/06/22 05:38:48;;;;;;;7.95;4.85;;;18.90;88.30;;;;;;5039419;28;20028;-87
2021/06/22 05:41:13;;;;;;;8.45;4.90;;;19.00;88.70;;;;;;5053515;28;20102;-84
2021/06/22 05:43:39;;;;;;;8.35;4.75;;;19.00;88.30;;;;;;5045292;28;20518;-85
2021/06/22 05:46:05;;;;;;;10.73;6.03;;;19.00;88.30;;;;;;5045683;28;20128;-85
2021/06/22 05:48:31;;;;;;;10.75;6.07;;;19.10;88.10;;;;;;5037666;28;20032;-85
2021/06/22 05:50:57;;;;;;;9.57;6.38;;;19.00;88.30;;;;;;5056204;28;20564;-85
2021/06/22 05:53:22;;;;;;;12.70;5.82;;;19.00;88.10;;;;;;5075513;28;20021;-85
2021/06/22 05:55:48;;;;;;;10.45;5.82;;;19.10;88.00;;;;;;5058184;28;20376;-86
2021/06/22 05:58:14;;;;;;;15.27;6.88;;;19.10;88.10;;;;;;5062339;28;20074;-85
2021/06/22 06:00:40;;;;;;;13.45;6.90;;;19.10;87.90;;;;;;5055179;28;20408;-86
2021/06/22 06:03:06;;;;;;;17.83;7.60;;;19.20;88.60;;;;;;5057165;28;20119;-86
2021/06/22 06:05:32;;;;;;;11.93;7.18;;;19.20;88.00;;;;;;5057099;28;20526;-86
2021/06/22 06:07:58;;;;;;;10.50;5.88;;;19.20;87.90;;;;;;5056798;28;20025;-88
2021/06/22 06:10:24;;;;;;;9.63;5.93;;;19.10;88.00;;;;;;5057129;28;20081;-88
2021/06/22 06:12:51;;;;;;;9.90;5.88;;;19.10;87.70;;;;;;5049064;28;20021;-88
2021/06/22 06:15:17;;;;;;;10.02;5.90;;;19.10;87.90;;;;;;5051689;28;20028;-85
2021/06/22 06:17:45;;;;;;;10.10;6.00;;;19.10;88.10;;;;;;5037436;28;20171;-87
2021/06/22 06:20:13;;;;;;;10.93;5.78;;;19.20;88.50;;;;;;5049363;28;20035;-88
2021/06/22 06:22:41;;;;;;;9.15;5.20;;;19.10;88.20;;;;;;5041395;28;20021;-88
2021/06/22 06:25:08;;;;;;;11.00;5.30;;;19.20;88.20;;;;;;5053665;28;20028;-89
2021/06/22 06:27:46;;;;;;;10.07;5.97;;;19.20;88.30;;;;;;5044567;28;20027;-89
2021/06/22 06:30:16;;;;;;;9.10;5.75;;;19.20;88.70;;;;;;5056739;28;20116;-87
2021/06/22 06:32:43;;;;;;;10.30;5.72;;;19.10;88.10;;;;;;5058479;28;20079;-86
2021/06/22 06:35:09;;;;;;;9.07;5.68;;;19.00;88.80;;;;;;5057086;28;20035;-88
2021/06/22 06:37:35;;;;;;;7.93;5.20;;;19.10;88.80;;;;;;5049469;28;20029;-90
2021/06/22 06:40:00;;;;;;;7.97;5.00;;;19.20;88.90;;;;;;5048537;28;20043;-84
2021/06/22 06:42:26;;;;;;;10.75;4.82;;;19.20;89.40;;;;;;5046286;28;20342;-82
2021/06/22 06:44:52;;;;;;;8.43;4.57;;;19.20;89.00;;;;;;5074081;28;20045;-86
2021/06/22 06:47:18;;;;;;;9.32;4.97;;;19.20;88.70;;;;;;5056575;28;20487;-85
2021/06/22 06:49:44;;;;;;;10.00;5.15;;;19.30;89.30;;;;;;5057230;28;20024;-83
2021/06/22 06:52:10;;;;;;;7.50;5.13;;;19.20;88.70;;;;;;5057048;28;20093;-83
2021/06/22 06:54:35;;;;;;;7.18;3.97;;;19.20;88.20;;;;;;5041052;28;20025;-89
2021/06/22 06:57:01;;;;;;;6.18;3.88;;;19.20;88.40;;;;;;5055325;28;20054;-84
2021/06/22 06:59:27;;;;;;;5.95;3.80;;;19.20;89.10;;;;;;5056342;28;20135;-86
2021/06/22 07:01:52;;;;;;;6.78;3.92;;;19.20;88.60;;;;;;5056315;28;20016;-81
2021/06/22 07:04:18;;;;;;;7.18;3.88;;;19.20;89.20;;;;;;5055637;28;20119;-83
2021/06/22 07:06:44;;;;;;;4.55;3.30;;;19.20;89.20;;;;;;5055803;28;20031;-84
2021/06/22 07:09:10;;;;;;;6.88;3.60;;;19.20;89.30;;;;;;5036580;28;20374;-84
2021/06/22 07:11:36;;;;;;;5.53;3.45;;;19.30;89.30;;;;;;5043083;28;20067;-80
2021/06/22 07:14:02;;;;;;;6.82;3.97;;;19.20;88.90;;;;;;5047215;28;20131;-81
2021/06/22 07:16:28;;;;;;;7.55;3.40;;;19.20;88.80;;;;;;5040864;28;20053;-80
2021/06/22 07:18:54;;;;;;;7.20;3.53;;;19.10;89.20;;;;;;5053295;28;20484;-81
2021/06/22 07:21:20;;;;;;;6.43;3.50;;;19.20;89.40;;;;;;5055232;28;20473;-80
2021/06/22 07:23:46;;;;;;;5.18;3.47;;;19.20;89.20;;;;;;5055588;28;20017;-81
2021/06/22 07:26:13;;;;;;;7.35;3.55;;;19.10;89.60;;;;;;5055290;28;20138;-83
2021/06/22 07:28:39;;;;;;;6.20;4.05;;;19.20;89.00;;;;;;5055700;28;20044;-86
2021/06/22 07:31:07;;;;;;;4.53;3.28;;;19.20;88.70;;;;;;5052832;28;20450;-91
2021/06/22 07:33:32;;;;;;;6.13;3.40;;;19.10;88.70;;;;;;5060656;28;20021;-93
2021/06/22 07:35:58;;;;;;;6.22;3.60;;;19.20;88.70;;;;;;5056099;28;20077;-92
2021/06/22 07:38:24;;;;;;;5.65;3.60;;;19.20;88.50;;;;;;5055760;28;20362;-83
2021/06/22 07:40:49;;;;;;;5.68;3.60;;;19.20;88.30;;;;;;5038429;28;20021;-83
2021/06/22 07:43:15;;;;;;;6.95;3.35;;;19.30;87.90;;;;;;5049615;28;20048;-82
2021/06/22 07:45:41;;;;;;;5.78;3.45;;;19.30;88.40;;;;;;5043575;28;20052;-83
2021/06/22 07:48:09;;;;;;;8.82;3.47;;;19.20;88.70;;;;;;5055145;28;20043;-81
2021/06/22 07:50:35;;;;;;;7.53;3.38;;;19.30;88.80;;;;;;5054710;28;20020;-81
2021/06/22 07:53:02;;;;;;;3.58;2.83;;;19.00;89.30;;;;;;5054622;28;20115;-80
2021/06/22 07:55:29;;;;;;;4.65;2.58;;;19.00;89.20;;;;;;5065629;28;20537;-80
2021/06/22 07:57:55;;;;;;;3.10;2.30;;;19.00;88.90;;;;;;5035817;28;20070;-82
2021/06/22 08:00:50;;;;;;;5.88;3.25;;;19.20;88.90;;;;;;5035253;28;20025;-86
2021/06/22 08:03:18;;;;;;;4.28;2.65;;;19.30;89.10;;;;;;5049594;28;20025;-84
2021/06/22 08:05:45;;;;;;;3.78;2.95;;;19.40;88.40;;;;;;5061824;28;20031;-85
2021/06/22 08:08:14;;;;;;;4.22;2.70;;;19.50;88.10;;;;;;5043195;28;20110;-85
2021/06/22 08:10:40;;;;;;;5.18;2.80;;;19.50;87.50;;;;;;5035236;28;20025;-85
2021/06/22 08:13:07;;;;;;;3.55;2.80;;;19.50;87.20;;;;;;5049539;28;20021;-85
2021/06/22 08:15:34;;;;;;;8.40;3.00;;;19.50;87.20;;;;;;5041417;28;20025;-85
2021/06/22 08:18:00;;;;;;;6.15;2.70;;;19.60;87.50;;;;;;5045415;28;20087;-87
2021/06/22 08:20:26;;;;;;;4.28;2.70;;;19.50;87.20;;;;;;5049634;28;20036;-85
2021/06/22 08:22:55;;;;;;;13.38;6.10;;;19.60;87.20;;;;;;5073228;28;20024;-84
2021/06/22 08:25:22;;;;;;;6.68;4.05;;;19.60;86.90;;;;;;5054410;28;20024;-83
2021/06/22 08:27:48;;;;;;;5.35;3.38;;;19.50;87.30;;;;;;5055190;28;20056;-81
2021/06/22 08:30:15;;;;;;;4.07;2.83;;;19.30;88.10;;;;;;5057666;28;20027;-83
2021/06/22 08:32:41;;;;;;;6.80;3.05;;;19.30;87.90;;;;;;5059415;28;20025;-82
2021/06/22 08:35:07;;;;;;;4.93;2.58;;;19.40;87.50;;;;;;5042129;28;20036;-84
2021/06/22 08:37:33;;;;;;;4.53;2.80;;;19.30;87.40;;;;;;5051738;28;20090;-85
2021/06/22 08:39:58;;;;;;;4.25;2.60;;;19.30;87.60;;;;;;5039236;28;20021;-84
2021/06/22 08:42:24;;;;;;;4.50;2.85;;;19.30;87.80;;;;;;5061856;28;20457;-84
2021/06/22 08:44:51;;;;;;;4.97;3.08;;;19.20;88.30;;;;;;5056343;28;20489;-84
2021/06/22 08:47:27;;;;;;;5.30;2.92;;;19.30;88.10;;;;;;5058577;28;20025;-84
2021/06/22 08:49:55;;;;;;;6.43;3.40;;;19.40;88.10;;;;;;5060738;28;20047;-93
2021/06/22 08:52:25;;;;;;;5.38;2.88;;;19.40;88.10;;;;;;5058557;28;20052;-85
2021/06/22 08:54:52;;;;;;;7.88;4.28;;;19.30;87.90;;;;;;5057209;28;20032;-82
2021/06/22 08:57:19;;;;;;;5.38;3.20;;;19.40;87.40;;;;;;5057640;28;20428;-81
2021/06/22 08:59:45;;;;;;;5.28;3.33;;;19.30;88.00;;;;;;5059826;28;20078;-85
2021/06/22 09:02:10;;;;;;;6.40;3.58;;;19.30;88.60;;;;;;5059306;28;20024;-87
2021/06/22 09:04:36;;;;;;;7.45;3.60;;;19.30;88.30;;;;;;5058336;28;20056;-84
2021/06/22 09:07:02;;;;;;;7.65;3.80;;;19.30;88.30;;;;;;5055261;28;20108;-83
2021/06/22 09:09:38;;;;;;;8.10;3.90;;;19.30;88.00;;;;;;5044337;28;20077;-82
2021/06/22 09:12:10;;;;;;;10.15;4.43;;;19.30;87.90;;;;;;5046801;28;20074;-81
2021/06/22 09:14:39;;;;;;;;;;;19.40;88.00;;;;;;5049928;28;20037;-82
2021/06/22 09:17:06;;;;;;;8.68;4.13;;;19.40;88.00;;;;;;5054191;28;19912;-83
2021/06/22 09:19:32;;;;;;;9.15;4.57;;;19.30;88.00;;;;;;5045154;28;20052;-84
2021/06/22 09:22:17;;;;;;;8.65;4.43;;;19.30;88.50;;;;;;5058400;28;20119;-80
2021/06/22 09:25:09;;;;;;;11.02;4.80;;;19.20;88.40;;;;;;5058586;28;20090;-82
2021/06/22 09:27:52;;;;;;;7.75;3.75;;;19.20;88.40;;;;;;5050314;28;20017;-82
2021/06/22 09:30:40;;;;;;;7.30;3.65;;;19.20;88.90;;;;;;5037836;28;20056;-89
2021/06/22 09:33:25;;;;;;;6.82;3.30;;;19.10;89.00;;;;;;5059431;28;20085;-83
2021/06/22 09:36:07;;;;;;;6.38;2.65;;;19.10;89.20;;;;;;5048648;28;20029;-84
2021/06/22 09:38:47;;;;;;;5.50;3.30;;;19.20;89.10;;;;;;5053051;28;20064;-82
2021/06/22 09:41:19;;;;;;;7.70;3.33;;;19.20;89.10;;;;;;5055896;28;20052;-83
2021/06/22 09:43:51;;;;;;;6.10;3.50;;;19.20;89.20;;;;;;5044333;28;20048;-92
2021/06/22 09:46:29;;;;;;;6.82;3.13;;;19.30;89.40;;;;;;5051297;28;20031;-81
2021/06/22 09:48:59;;;;;;;5.35;3.28;;;19.30;89.10;;;;;;5057205;28;20021;-82
2021/06/22 09:51:32;;;;;;;5.72;3.08;;;19.30;88.70;;;;;;5069063;28;20032;-85
2021/06/22 09:54:12;;;;;;;5.53;3.20;;;19.30;88.80;;;;;;5057334;28;20028;-81
2021/06/22 09:56:49;;;;;;;6.57;2.95;;;19.40;89.00;;;;;;5057179;28;20115;-84
2021/06/22 09:59:14;;;;;;;5.47;3.38;;;19.40;88.70;;;;;;5038444;28;20059;-85
2021/06/22 10:01:40;;;;;;;6.45;3.28;;;19.40;89.00;;;;;;5045747;28;20029;-91
2021/06/22 10:04:16;;;;;;;6.18;3.03;;;19.50;89.80;;;;;;5057906;28;20033;-89
2021/06/22 10:06:47;;;;;;;5.85;3.15;;;19.50;89.10;;;;;;5058625;28;20500;-89
2021/06/22 10:09:19;;;;;;;5.47;3.20;;;19.60;89.00;;;;;;5037614;28;20466;-83
2021/06/22 10:11:44;;;;;;;3.97;2.85;;;19.60;88.50;;;;;;5037908;28;20032;-84
2021/06/22 10:14:22;;;;;;;3.97;2.78;;;19.70;87.90;;;;;;5044632;28;20044;-84
2021/06/22 10:16:48;;;;;;;3.78;2.40;;;19.60;88.50;;;;;;5036812;28;20638;-82
2021/06/22 10:19:14;;;;;;;5.15;2.75;;;19.60;89.00;;;;;;5037562;28;20120;-88
2021/06/22 10:21:40;;;;;;;4.07;2.55;;;19.60;89.20;;;;;;5038022;28;20020;-91
2021/06/22 10:24:07;;;;;;;4.43;2.75;;;19.60;89.40;;;;;;5039281;28;20048;-91
2021/06/22 10:26:33;;;;;;;7.18;3.50;;;19.60;89.90;;;;;;5053527;28;20036;-90
2021/06/22 10:29:00;;;;;;;6.40;3.60;;;19.80;89.40;;;;;;5072561;28;20020;-84
2021/06/22 10:31:27;;;;;;;8.93;3.80;;;19.80;87.90;;;;;;5036774;28;20056;-81
2021/06/22 10:33:53;;;;;;;7.20;3.17;;;19.90;87.70;;;;;;5055037;28;20028;-88
2021/06/22 10:36:27;;;;;;;6.70;3.72;;;19.90;87.90;;;;;;5050503;28;20097;-90
2021/06/22 10:38:56;;;;;;;7.50;4.03;;;20.10;89.20;;;;;;5039268;28;20020;-90
2021/06/22 10:41:23;;;;;;;6.35;3.85;;;20.00;88.20;;;;;;5037267;28;20521;-86
2021/06/22 10:43:49;;;;;;;6.38;3.35;;;20.00;88.10;;;;;;5037204;28;20106;-83
2021/06/22 10:46:17;;;;;;;6.47;3.83;;;20.10;88.20;;;;;;5044361;28;20021;-84
2021/06/22 10:48:46;;;;;;;6.70;3.60;;;20.00;87.80;;;;;;5073445;28;20535;-84
2021/06/22 10:51:41;;;;;;;7.28;3.67;;;20.00;88.30;;;;;;5074862;28;20025;-85
2021/06/22 10:54:07;;;;;;;6.95;3.60;;;20.00;88.00;;;;;;5031369;28;20072;-83
2021/06/22 10:56:33;;;;;;;7.70;3.90;;;20.00;88.20;;;;;;5036570;28;20033;-83
2021/06/22 10:59:23;;;;;;;5.15;3.60;;;20.00;88.20;;;;;;5057562;28;20011;-93
2021/06/22 11:01:50;;;;;;;6.43;4.00;;;20.00;87.80;;;;;;5047359;28;20111;-80
2021/06/22 11:04:16;;;;;;;6.13;3.85;;;20.20;87.40;;;;;;5056633;28;20035;-81
2021/06/22 11:06:41;;;;;;;6.70;3.90;;;20.20;87.90;;;;;;5055731;28;20025;-81
2021/06/22 11:09:20;;;;;;;5.85;4.13;;;20.20;87.10;;;;;;5074173;28;20031;-82
2021/06/22 11:11:45;;;;;;;6.88;4.10;;;20.20;87.40;;;;;;5056290;28;20119;-82
2021/06/22 11:14:12;;;;;;;7.18;3.65;;;20.20;87.50;;;;;;5073831;28;20434;-80
2021/06/22 11:16:38;;;;;;;6.82;4.10;;;20.20;87.40;;;;;;5055855;28;20476;-80
2021/06/22 11:19:09;;;;;;;6.70;3.78;;;20.10;87.70;;;;;;5052743;28;20032;-80
2021/06/22 11:21:36;;;;;;;6.85;4.00;;;20.20;87.90;;;;;;5036587;28;20070;-89
2021/06/22 11:24:05;;;;;;;6.95;4.82;;;20.20;88.50;;;;;;5037412;28;20052;-91
2021/06/22 11:26:54;;;;;;;8.05;4.85;;;20.10;89.30;;;;;;5051251;28;20485;-89
2021/06/22 11:29:22;;;;;;;7.32;4.72;;;20.10;88.90;;;;;;5036145;28;20025;-87
2021/06/22 11:31:51;;;;;;;6.38;4.32;;;20.10;89.30;;;;;;5037054;28;20599;-89
2021/06/22 11:34:18;;;;;;;7.22;4.68;;;20.20;89.50;;;;;;5036422;28;20041;-91
2021/06/22 11:36:46;;;;;;;6.72;4.35;;;20.20;89.20;;;;;;5036008;28;20394;-84
2021/06/22 11:39:15;;;;;;;5.93;4.10;;;20.10;88.70;;;;;;5035991;28;20529;-88
2021/06/22 11:41:42;;;;;;;6.40;4.40;;;20.10;88.80;;;;;;5035729;28;20668;-83
2021/06/22 11:44:08;;;;;;;5.90;4.40;;;20.10;88.70;;;;;;5048860;28;20135;-86
2021/06/22 11:46:40;;;;;;;6.68;4.50;;;19.80;89.30;;;;;;5056272;28;20115;-80
2021/06/22 11:49:06;;;;;;;7.13;4.22;;;19.80;89.20;;;;;;5052322;28;20160;-83
2021/06/22 11:52:02;;;;;;;7.30;4.40;;;19.90;89.70;;;;;;5042200;28;20465;-80
2021/06/22 11:54:46;;;;;;;8.35;4.68;;;19.80;89.70;;;;;;5056271;28;20063;-84
2021/06/22 11:57:17;;;;;;;8.15;4.65;;;19.80;90.10;;;;;;5057855;28;20029;-83
2021/06/22 11:59:44;;;;;;;7.32;3.95;;;19.80;90.10;;;;;;5057641;28;20054;-85
2021/06/22 12:02:10;;;;;;;7.25;4.13;;;19.80;90.30;;;;;;5058184;28;20039;-86
2021/06/22 12:04:35;;;;;;;6.78;4.07;;;19.70;90.10;;;;;;5056792;28;20025;-85
2021/06/22 12:07:02;;;;;;;6.43;4.30;;;19.70;90.20;;;;;;5074838;28;20031;-85
2021/06/22 12:09:28;;;;;;;8.00;4.32;;;19.70;90.20;;;;;;5075511;28;20469;-85
2021/06/22 12:11:57;;;;;;;6.38;4.05;;;19.70;90.10;;;;;;5057513;28;20088;-86
2021/06/22 12:14:23;;;;;;;6.28;4.05;;;19.70;90.40;;;;;;5043713;28;20371;-86
2021/06/22 12:16:49;;;;;;;7.60;4.45;;;19.80;90.20;;;;;;5054693;28;20067;-86
2021/06/22 12:19:18;;;;;;;7.38;4.03;;;19.70;90.20;;;;;;5039063;28;20021;-83
2021/06/22 12:21:57;;;;;;;6.35;4.22;;;19.80;90.00;;;;;;5045687;28;20029;-82
2021/06/22 12:24:23;;;;;;;9.20;4.50;;;19.80;90.00;;;;;;5052784;28;20036;-84
2021/06/22 12:26:52;;;;;;;5.85;4.20;;;19.90;90.20;;;;;;5039254;28;20021;-83
2021/06/22 12:29:26;;;;;;;6.60;4.45;;;19.90;90.20;;;;;;5039281;28;20579;-84
2021/06/22 12:31:56;;;;;;;6.50;3.88;;;20.00;90.40;;;;;;5054990;28;20480;-85
2021/06/22 12:34:27;;;;;;;6.70;4.00;;;20.00;90.30;;;;;;5054785;28;20115;-80
2021/06/22 12:36:53;;;;;;;6.18;3.78;;;20.20;90.20;;;;;;5052707;28;20032;-84
2021/06/22 12:39:21;;;;;;;5.60;3.65;;;20.60;89.30;;;;;;5039342;28;20029;-84
2021/06/22 12:41:47;;;;;;;6.18;4.22;;;21.10;87.70;;;;;;5046186;28;20374;-84
2021/06/22 12:44:13;;;;;;;5.28;3.95;;;21.60;87.00;;;;;;5043819;28;20053;-84
2021/06/22 12:46:44;;;;;;;5.03;3.75;;;22.10;84.70;;;;;;5036294;28;20040;-84
2021/06/22 12:49:13;;;;;;;5.43;4.00;;;22.30;86.70;;;;;;5052465;28;20045;-83